createdAt,value
2019-02-17T00:01:31.695Z,80.78
2019-02-17T00:04:38.064Z,82.03
2019-02-17T00:07:44.444Z,82.00
2019-02-17T00:10:50.795Z,82.99
2019-02-17T00:13:57.548Z,81.56
2019-02-17T00:17:04.145Z,81.89
2019-02-17T00:20:11.016Z,82.43
2019-02-17T00:23:17.485Z,82.25
2019-02-17T00:26:23.937Z,82.64
2019-02-17T00:29:30.232Z,82.28
2019-02-17T00:32:36.580Z,81.48
2019-02-17T00:35:42.979Z,81.07
2019-02-17T00:38:49.477Z,80.66
2019-02-17T00:41:55.894Z,79.76
2019-02-17T00:45:02.276Z,80.75
2019-02-17T00:48:08.616Z,81.62
2019-02-17T00:51:17.262Z,81.50
2019-02-17T00:54:23.644Z,81.09
2019-02-17T00:57:29.949Z,81.42
2019-02-17T01:00:36.678Z,81.45
2019-02-17T01:03:45.469Z,82.13
2019-02-17T01:06:54.348Z,82.28
2019-02-17T01:10:00.715Z,82.17
2019-02-17T01:13:07.619Z,82.37
2019-02-17T01:16:14.191Z,82.02
2019-02-17T01:19:20.534Z,81.66
2019-02-17T01:22:27.089Z,82.10
2019-02-17T01:25:33.491Z,81.51
2019-02-17T01:28:42.090Z,81.02
2019-02-17T01:31:48.445Z,81.28
2019-02-17T01:34:54.831Z,82.08
2019-02-17T01:38:01.302Z,82.57
2019-02-17T01:41:07.655Z,82.88
2019-02-17T01:44:14.029Z,82.88
2019-02-17T01:47:20.380Z,82.12
2019-02-17T01:50:26.806Z,81.87
2019-02-17T01:53:33.219Z,81.97
2019-02-17T01:56:39.588Z,82.85
2019-02-17T01:59:46.080Z,83.07
2019-02-17T02:02:52.541Z,82.77
2019-02-17T02:05:58.965Z,82.91
2019-02-17T02:09:08.802Z,82.96
2019-02-17T02:12:15.288Z,82.33
2019-02-17T02:15:21.644Z,82.71
2019-02-17T02:18:28.093Z,82.55
2019-02-17T02:21:34.556Z,81.78
2019-02-17T02:24:41.002Z,81.73
2019-02-17T02:27:47.347Z,82.16
2019-02-17T02:30:53.602Z,82.04
2019-02-17T02:33:59.965Z,81.98
2019-02-17T02:37:06.337Z,81.96
2019-02-17T02:40:12.726Z,82.37
2019-02-17T02:43:19.026Z,82.01
2019-02-17T02:46:25.483Z,81.62
2019-02-17T02:49:31.860Z,81.42
2019-02-17T02:52:38.292Z,81.13
2019-02-17T02:55:44.553Z,80.98
2019-02-17T02:58:50.941Z,80.86
2019-02-17T03:01:57.281Z,80.58
2019-02-17T03:05:04.325Z,80.43
2019-02-17T03:08:10.732Z,80.40
2019-02-17T03:11:18.094Z,80.40
2019-02-17T03:14:24.459Z,80.46
2019-02-17T03:17:30.788Z,80.55
2019-02-17T03:20:37.165Z,80.92
2019-02-17T03:23:43.438Z,80.77
2019-02-17T03:26:49.771Z,80.56
2019-02-17T03:30:04.417Z,79.92
2019-02-17T03:33:04.193Z,80.37
2019-02-17T03:36:10.668Z,79.74
2019-02-17T03:39:17.049Z,80.27
2019-02-17T03:42:23.440Z,79.65
2019-02-17T03:45:29.711Z,79.37
2019-02-17T03:48:36.050Z,79.25
2019-02-17T03:51:42.416Z,78.85
2019-02-17T03:54:48.763Z,77.99
2019-02-17T03:57:55.009Z,77.06
2019-02-17T04:01:01.375Z,76.79
2019-02-17T04:04:07.712Z,76.96
2019-02-17T04:07:14.194Z,77.52
2019-02-17T04:10:20.541Z,77.22
2019-02-17T04:13:26.911Z,77.06
2019-02-17T04:16:33.357Z,76.61
2019-02-17T04:19:39.677Z,76.69
2019-02-17T04:22:46.055Z,77.08
2019-02-17T04:25:55.509Z,76.74
2019-02-17T04:29:01.845Z,76.35
2019-02-17T04:32:08.216Z,75.08
2019-02-17T04:35:14.551Z,75.17
2019-02-17T04:38:20.857Z,75.05
2019-02-17T04:41:27.181Z,74.79
2019-02-17T04:44:33.593Z,74.52
2019-02-17T04:47:40.018Z,74.43
2019-02-17T04:50:46.380Z,74.24
2019-02-17T04:53:52.790Z,73.91
2019-02-17T04:56:59.123Z,73.94
2019-02-17T05:00:06.118Z,73.74
2019-02-17T05:03:12.618Z,74.38
2019-02-17T05:06:19.017Z,73.86
2019-02-17T05:09:25.419Z,73.86
2019-02-17T05:12:31.699Z,73.60
2019-02-17T05:15:37.990Z,74.72
2019-02-17T05:18:44.240Z,75.09
2019-02-17T05:21:50.562Z,76.23
2019-02-17T05:24:56.884Z,76.36
2019-02-17T05:28:03.193Z,77.35
2019-02-17T05:31:09.526Z,76.96
2019-02-17T05:34:15.988Z,75.91
2019-02-17T05:37:22.324Z,75.89
2019-02-17T05:40:29.748Z,76.23
2019-02-17T05:43:36.101Z,76.18
2019-02-17T05:46:42.468Z,76.44
2019-02-17T05:49:48.797Z,76.17
2019-02-17T05:52:55.061Z,76.61
2019-02-17T05:56:01.339Z,76.96
2019-02-17T05:59:07.718Z,77.93
2019-02-17T06:02:14.149Z,78.58
2019-02-17T06:05:20.494Z,79.12
2019-02-17T06:08:26.858Z,79.41
2019-02-17T06:11:33.474Z,79.57
2019-02-17T06:14:39.811Z,79.36
2019-02-17T06:17:46.233Z,78.42
2019-02-17T06:20:52.627Z,78.54
2019-02-17T06:23:59.080Z,79.39
2019-02-17T06:27:05.363Z,79.84
2019-02-17T06:30:11.761Z,79.28
2019-02-17T06:33:18.130Z,78.71
2019-02-17T06:36:24.467Z,77.60
2019-02-17T06:39:30.834Z,77.13
2019-02-17T06:42:37.271Z,77.21
2019-02-17T06:45:43.738Z,76.41
2019-02-17T06:48:50.125Z,76.61
2019-02-17T06:51:56.475Z,76.12
2019-02-17T06:55:20.782Z,76.27
2019-02-17T06:58:27.237Z,75.60
2019-02-17T07:01:33.714Z,75.84
2019-02-17T07:05:04.878Z,75.41
2019-02-17T07:08:11.847Z,75.24
2019-02-17T07:11:20.703Z,74.91
2019-02-17T07:14:27.165Z,74.92
2019-02-17T07:17:33.540Z,74.93
2019-02-17T07:20:39.880Z,74.27
2019-02-17T07:23:46.213Z,74.94
2019-02-17T07:26:52.589Z,74.76
2019-02-17T07:29:58.951Z,74.51
2019-02-17T07:33:05.379Z,74.44
2019-02-17T07:36:11.665Z,74.03
2019-02-17T07:39:18.073Z,73.92
2019-02-17T07:42:24.601Z,73.61
2019-02-17T07:45:30.930Z,73.14
2019-02-17T07:48:37.468Z,72.65
2019-02-17T07:51:43.857Z,71.84
2019-02-17T07:54:50.302Z,69.52
2019-02-17T07:57:56.696Z,68.69
2019-02-17T08:01:03.318Z,67.37
2019-02-17T08:04:09.756Z,68.04
2019-02-17T08:07:16.331Z,67.44
2019-02-17T08:10:23.670Z,65.68
2019-02-17T08:13:30.141Z,65.04
2019-02-17T08:16:36.585Z,66.09
2019-02-17T08:19:43.070Z,64.55
2019-02-17T08:22:49.418Z,63.36
2019-02-17T08:25:55.827Z,64.15
2019-02-17T08:29:02.264Z,61.68
2019-02-17T08:32:08.610Z,62.02
2019-02-17T08:35:15.189Z,61.82
2019-02-17T08:38:21.527Z,60.88
2019-02-17T08:41:28.061Z,60.62
2019-02-17T08:44:34.418Z,58.76
2019-02-17T08:47:40.694Z,56.42
2019-02-17T08:50:47.141Z,56.81
2019-02-17T08:53:53.606Z,57.39
2019-02-17T08:57:00.071Z,57.28
2019-02-17T09:00:07.657Z,57.45
2019-02-17T09:03:14.076Z,56.64
2019-02-17T09:06:21.347Z,56.01
2019-02-17T09:09:27.693Z,56.48
2019-02-17T09:12:34.181Z,54.22
2019-02-17T09:15:40.566Z,55.09
2019-02-17T09:18:48.136Z,54.51
2019-02-17T09:21:54.545Z,54.51
2019-02-17T09:25:01.042Z,51.59
2019-02-17T09:28:07.902Z,51.96
2019-02-17T09:31:14.170Z,51.50
2019-02-17T09:34:20.609Z,52.07
2019-02-17T09:37:27.163Z,51.35
2019-02-17T09:40:38.041Z,47.87
2019-02-17T09:43:45.691Z,50.20
2019-02-17T09:46:52.121Z,48.21
2019-02-17T09:50:00.006Z,48.44
2019-02-17T09:53:06.358Z,46.42
2019-02-17T09:56:13.004Z,44.87
2019-02-17T09:59:19.453Z,43.51
2019-02-17T10:02:29.322Z,43.39
2019-02-17T10:05:36.789Z,42.91
2019-02-17T10:08:43.267Z,40.01
2019-02-17T10:11:49.575Z,41.68
2019-02-17T10:15:03.772Z,40.19
2019-02-17T10:18:12.843Z,39.09
2019-02-17T10:21:19.585Z,39.86
2019-02-17T10:24:25.946Z,39.55
2019-02-17T10:27:33.701Z,38.44
2019-02-17T10:30:40.353Z,36.70
2019-02-17T10:33:46.949Z,37.12
2019-02-17T10:36:53.457Z,37.55
2019-02-17T10:39:59.746Z,37.51
2019-02-17T10:43:06.085Z,36.50
2019-02-17T10:46:12.497Z,38.86
2019-02-17T10:49:19.460Z,36.32
2019-02-17T10:52:25.806Z,35.50
2019-02-17T10:55:32.204Z,37.20
2019-02-17T10:58:40.228Z,37.02
2019-02-17T11:01:46.611Z,36.75
2019-02-17T11:04:54.618Z,35.80
2019-02-17T11:08:01.041Z,37.50
2019-02-17T11:11:17.864Z,38.70
2019-02-17T11:14:24.194Z,38.02
2019-02-17T11:17:30.558Z,39.00
2019-02-17T11:20:39.776Z,40.52
2019-02-17T11:23:46.282Z,40.29
2019-02-17T11:26:52.560Z,40.80
2019-02-17T11:29:59.022Z,43.31
2019-02-17T11:33:08.331Z,41.37
2019-02-17T11:36:14.725Z,42.83
2019-02-17T11:39:21.573Z,42.56
2019-02-17T11:42:28.125Z,42.33
2019-02-17T11:45:34.557Z,42.24
2019-02-17T11:48:40.952Z,42.46
2019-02-17T11:51:47.231Z,43.35
2019-02-17T11:54:56.258Z,44.11
2019-02-17T11:58:02.946Z,43.67
2019-02-17T12:01:09.519Z,44.43
2019-02-17T12:04:16.081Z,43.61
2019-02-17T12:07:22.437Z,43.97
2019-02-17T12:10:28.702Z,44.83
2019-02-17T12:13:35.175Z,44.40
2019-02-17T12:16:41.528Z,46.82
2019-02-17T12:19:52.091Z,43.70
2019-02-17T12:23:03.096Z,44.35
2019-02-17T12:26:17.306Z,43.85
2019-02-17T12:29:40.232Z,43.95
2019-02-17T12:32:46.517Z,44.51
2019-02-17T12:35:52.946Z,43.33
2019-02-17T12:38:59.517Z,43.77
2019-02-17T12:42:07.798Z,42.43
2019-02-17T12:45:18.056Z,42.27
2019-02-17T12:48:23.432Z,42.70
2019-02-17T12:51:30.002Z,43.96
2019-02-17T12:54:36.480Z,43.42
2019-02-17T12:57:42.878Z,42.89
2019-02-17T13:00:49.222Z,44.82
2019-02-17T13:03:55.830Z,41.61
2019-02-17T13:07:02.203Z,42.48
2019-02-17T13:10:09.459Z,42.27
2019-02-17T13:13:19.792Z,42.96
2019-02-17T13:16:26.308Z,42.26
2019-02-17T13:19:32.765Z,45.36
2019-02-17T13:22:39.123Z,43.06
2019-02-17T13:25:45.533Z,43.14
2019-02-17T13:28:52.040Z,42.21
2019-02-17T13:32:02.888Z,42.48
2019-02-17T13:35:10.805Z,43.80
2019-02-17T13:38:17.684Z,45.81
2019-02-17T13:41:24.200Z,44.86
2019-02-17T13:44:30.467Z,45.09
2019-02-17T13:47:36.824Z,43.84
2019-02-17T13:50:43.352Z,45.40
2019-02-17T13:53:49.791Z,44.24
2019-02-17T13:56:56.191Z,43.90
2019-02-17T14:00:03.885Z,44.93
2019-02-17T14:03:10.523Z,45.58
2019-02-17T14:06:18.284Z,44.66
2019-02-17T14:13:00.759Z,45.94
2019-02-17T14:16:07.220Z,45.67
2019-02-17T14:19:13.623Z,45.34
2019-02-17T14:22:26.285Z,46.24
2019-02-17T14:25:32.659Z,48.46
2019-02-17T14:28:49.375Z,46.35
2019-02-17T14:31:55.838Z,46.71
2019-02-17T14:35:02.145Z,46.44
2019-02-17T14:38:08.523Z,45.01
2019-02-17T14:41:14.795Z,46.49
2019-02-17T14:44:21.129Z,45.37
2019-02-17T14:47:27.593Z,46.63
2019-02-17T14:50:33.889Z,47.13
2019-02-17T14:53:40.229Z,47.47
2019-02-17T14:56:46.639Z,47.51
2019-02-17T14:59:53.069Z,47.15
2019-02-17T15:02:59.472Z,47.50
2019-02-17T15:06:05.753Z,47.31
2019-02-17T15:09:13.348Z,47.33
2019-02-17T15:12:19.628Z,49.30
2019-02-17T15:15:26.083Z,49.48
2019-02-17T15:18:32.406Z,48.83
2019-02-17T15:21:38.814Z,49.14
2019-02-17T15:24:45.249Z,49.72
2019-02-17T15:27:51.575Z,49.47
2019-02-17T15:30:58.109Z,49.94
2019-02-17T15:34:04.704Z,50.97
2019-02-17T15:37:11.167Z,50.41
2019-02-17T15:40:23.692Z,49.85
2019-02-17T15:43:30.160Z,51.98
2019-02-17T15:46:39.100Z,51.09
2019-02-17T15:49:46.953Z,51.62
2019-02-17T15:52:53.521Z,50.93
2019-02-17T15:55:59.813Z,51.01
2019-02-17T15:59:06.312Z,51.41
2019-02-17T16:02:12.732Z,51.19
2019-02-17T16:05:19.133Z,51.08
2019-02-17T16:08:25.486Z,51.18
2019-02-17T16:11:31.897Z,52.81
2019-02-17T16:14:41.979Z,50.93
2019-02-17T16:17:48.319Z,53.08
2019-02-17T16:20:54.661Z,52.86
2019-02-17T16:24:01.063Z,53.50
2019-02-17T16:27:12.588Z,53.00
2019-02-17T16:30:23.172Z,52.85
2019-02-17T16:33:36.287Z,52.46
2019-02-17T16:36:46.851Z,52.44
2019-02-17T16:39:55.564Z,52.89
2019-02-17T16:43:05.033Z,53.69
2019-02-17T16:46:12.010Z,53.07
2019-02-17T16:49:20.114Z,53.93
2019-02-17T16:52:26.805Z,53.37
2019-02-17T16:55:33.246Z,51.93
2019-02-17T16:58:39.716Z,53.35
2019-02-17T17:01:46.062Z,52.63
2019-02-17T17:04:53.107Z,53.25
2019-02-17T17:07:59.381Z,53.89
2019-02-17T17:11:07.377Z,54.16
2019-02-17T17:14:13.778Z,54.54
2019-02-17T17:17:20.328Z,53.67
2019-02-17T17:20:26.684Z,53.51
2019-02-17T17:23:33.099Z,53.68
2019-02-17T17:26:39.478Z,52.97
2019-02-17T17:29:45.807Z,52.65
2019-02-17T17:32:52.156Z,54.00
2019-02-17T17:35:58.504Z,55.91
2019-02-17T17:39:05.760Z,53.02
2019-02-17T17:42:13.703Z,52.15
2019-02-17T17:45:20.215Z,52.81
2019-02-17T17:48:27.122Z,53.82
2019-02-17T17:51:33.537Z,53.74
2019-02-17T17:54:39.886Z,53.57
2019-02-17T17:57:46.223Z,54.91
2019-02-17T18:00:52.708Z,55.15
2019-02-17T18:03:59.100Z,55.68
2019-02-17T18:07:05.499Z,55.22
2019-02-17T18:10:13.060Z,52.82
2019-02-17T18:13:19.409Z,51.77
2019-02-17T18:16:25.814Z,52.89
2019-02-17T18:19:34.367Z,53.96
2019-02-17T18:22:40.798Z,52.97
2019-02-17T18:25:47.248Z,52.97
2019-02-17T18:28:56.782Z,52.87
2019-02-17T18:32:03.149Z,53.41
2019-02-17T18:35:18.765Z,52.48
2019-02-17T18:38:17.675Z,53.04
2019-02-17T18:41:24.338Z,52.96
2019-02-17T18:44:30.654Z,53.37
2019-02-17T18:47:37.090Z,55.12
2019-02-17T18:50:43.450Z,54.78
2019-02-17T18:53:50.021Z,54.89
2019-02-17T18:56:56.321Z,54.57
2019-02-17T19:00:02.686Z,54.09
2019-02-17T19:03:10.537Z,53.56
2019-02-17T19:06:18.161Z,54.58
2019-02-17T19:09:24.604Z,54.68
2019-02-17T19:12:30.981Z,54.97
2019-02-17T19:15:37.365Z,54.75
2019-02-17T19:18:43.861Z,55.31
2019-02-17T19:21:50.281Z,55.72
2019-02-17T19:24:56.897Z,55.92
2019-02-17T19:28:03.845Z,55.29
2019-02-17T19:31:10.275Z,55.29
2019-02-17T19:34:16.608Z,55.27
2019-02-17T19:37:25.670Z,55.38
2019-02-17T19:40:31.986Z,55.79
2019-02-17T19:43:41.150Z,56.16
2019-02-17T19:46:48.558Z,56.44
2019-02-17T19:49:54.911Z,56.98
2019-02-17T19:53:01.258Z,57.92
2019-02-17T19:56:07.691Z,57.99
2019-02-17T19:59:14.049Z,57.60
2019-02-17T20:02:44.779Z,57.97
2019-02-17T20:05:56.309Z,58.27
2019-02-17T20:09:02.760Z,57.84
2019-02-17T20:12:11.822Z,57.53
2019-02-17T20:15:18.449Z,58.48
2019-02-17T20:18:24.920Z,58.49
2019-02-17T20:21:31.288Z,57.98
2019-02-17T20:24:37.684Z,57.92
2019-02-17T20:27:44.060Z,57.95
2019-02-17T20:30:50.494Z,57.85
2019-02-17T20:33:57.296Z,58.16
2019-02-17T20:37:04.228Z,58.23
2019-02-17T20:40:10.582Z,58.67
2019-02-17T20:43:16.954Z,58.94
2019-02-17T20:46:23.527Z,58.45
2019-02-17T20:49:31.083Z,57.87
2019-02-17T20:52:39.307Z,58.21
2019-02-17T20:55:47.115Z,58.70
2019-02-17T20:58:53.539Z,58.70
2019-02-17T21:02:04.149Z,58.58
2019-02-17T21:05:39.595Z,58.10
2019-02-17T21:08:46.199Z,57.98
2019-02-17T21:11:54.590Z,57.99
2019-02-17T21:15:02.132Z,58.09
2019-02-17T21:18:08.567Z,58.69
2019-02-17T21:21:14.977Z,58.50
2019-02-17T21:24:26.267Z,58.59
2019-02-17T21:27:32.666Z,58.53
2019-02-17T21:30:39.106Z,58.49
2019-02-17T21:33:45.572Z,58.39
2019-02-17T21:36:52.094Z,58.92
2019-02-17T21:39:58.452Z,58.62
2019-02-17T21:43:04.960Z,59.12
2019-02-17T21:46:11.281Z,59.22
2019-02-17T21:49:17.893Z,59.41
2019-02-17T21:52:25.562Z,59.90
2019-02-17T21:55:32.014Z,59.90
2019-02-17T21:58:38.283Z,59.89
2019-02-17T22:01:44.571Z,60.20
2019-02-17T22:04:51.063Z,60.11
2019-02-17T22:07:57.532Z,60.20
2019-02-17T22:11:03.842Z,60.68
2019-02-17T22:14:10.361Z,60.65
2019-02-17T22:17:16.595Z,60.42
2019-02-17T22:20:22.865Z,60.90
2019-02-17T22:23:29.321Z,61.26
2019-02-17T22:26:35.575Z,61.64
2019-02-17T22:29:41.952Z,61.64
2019-02-17T22:32:50.311Z,62.03
2019-02-17T22:35:56.561Z,62.13
2019-02-17T22:39:04.749Z,62.61
2019-02-17T22:42:12.653Z,63.35
2019-02-17T22:45:19.103Z,64.00
2019-02-17T22:48:25.421Z,64.20
2019-02-17T22:51:33.178Z,64.77
2019-02-17T22:54:39.533Z,64.58
2019-02-17T22:57:45.825Z,65.46
2019-02-17T23:00:59.533Z,65.70
2019-02-17T23:04:07.476Z,65.85
2019-02-17T23:07:13.942Z,66.42
2019-02-17T23:10:20.479Z,66.26
2019-02-17T23:13:27.387Z,66.51
2019-02-17T23:16:35.474Z,66.90
2019-02-17T23:19:41.822Z,67.10
2019-02-17T23:22:48.254Z,66.59
2019-02-17T23:25:54.618Z,67.06
2019-02-17T23:29:01.086Z,67.21
2019-02-17T23:32:07.363Z,67.10
2019-02-17T23:35:13.744Z,66.94
2019-02-17T23:38:20.259Z,66.66
2019-02-17T23:41:26.669Z,67.42
2019-02-17T23:44:33.040Z,67.42
2019-02-17T23:47:39.307Z,67.73
2019-02-17T23:50:45.636Z,67.72
2019-02-17T23:53:52.149Z,67.75
2019-02-17T23:56:58.485Z,67.82
